createdAt,value
2023-03-17T00:00:40.542Z,95210.00
2023-03-17T00:04:40.644Z,95210.00
2023-03-17T00:08:40.791Z,95194.00
2023-03-17T00:12:40.945Z,95202.00
2023-03-17T00:16:41.058Z,95194.00
2023-03-17T00:20:41.193Z,95184.00
2023-03-17T00:24:41.304Z,95188.00
2023-03-17T00:28:41.438Z,95184.00
2023-03-17T00:32:41.618Z,95182.00
2023-03-17T00:36:41.742Z,95174.00
2023-03-17T00:40:41.882Z,95174.00
2023-03-17T00:44:42.000Z,95161.00
2023-03-17T00:48:42.193Z,95145.00
2023-03-17T00:52:42.273Z,95147.00
2023-03-17T00:56:42.426Z,95147.00
2023-03-17T01:00:42.605Z,95139.00
2023-03-17T01:04:45.599Z,95143.00
2023-03-17T01:08:43.689Z,95137.00
2023-03-17T01:12:42.690Z,95137.00
2023-03-17T01:16:42.766Z,95149.00
2023-03-17T01:20:42.784Z,95141.00
2023-03-17T01:24:42.931Z,95149.00
2023-03-17T01:28:43.062Z,95145.00
2023-03-17T01:32:43.273Z,95145.00
2023-03-17T01:36:43.432Z,95139.00
2023-03-17T01:40:43.567Z,95145.00
2023-03-17T01:44:43.753Z,95133.00
2023-03-17T01:48:43.944Z,95145.00
2023-03-17T01:52:44.104Z,95137.00
2023-03-17T01:56:44.301Z,95129.00
2023-03-17T02:00:44.516Z,95126.00
2023-03-17T02:04:44.620Z,95118.00
2023-03-17T02:08:44.833Z,95116.00
2023-03-17T02:12:44.977Z,95106.00
2023-03-17T02:16:45.264Z,95108.00
2023-03-17T02:20:45.373Z,95104.00
2023-03-17T02:24:45.512Z,95110.00
2023-03-17T02:28:45.728Z,95112.00
2023-03-17T02:32:45.955Z,95110.00
2023-03-17T02:36:46.143Z,95106.00
2023-03-17T02:40:46.322Z,95104.00
2023-03-17T02:44:46.519Z,95104.00
2023-03-17T02:48:46.700Z,95102.00
2023-03-17T02:52:46.902Z,95082.00
2023-03-17T02:56:47.063Z,95100.00
2023-03-17T03:00:47.275Z,95092.00
2023-03-17T03:04:47.461Z,95098.00
2023-03-17T03:08:47.695Z,95088.00
2023-03-17T03:12:47.950Z,95079.00
2023-03-17T03:16:48.130Z,95102.00
2023-03-17T03:20:48.279Z,95090.00
2023-03-17T03:24:48.500Z,95098.00
2023-03-17T03:28:48.710Z,95098.00
2023-03-17T03:32:48.945Z,95104.00
2023-03-17T03:36:49.099Z,95102.00
2023-03-17T03:40:49.327Z,95086.00
2023-03-17T03:44:49.554Z,95104.00
2023-03-17T03:48:49.810Z,95116.00
2023-03-17T03:52:49.989Z,95102.00
2023-03-17T03:56:50.223Z,95092.00
2023-03-17T04:00:50.476Z,95100.00
2023-03-17T04:04:50.784Z,95090.00
2023-03-17T04:08:50.924Z,95092.00
2023-03-17T04:12:51.222Z,95102.00
2023-03-17T04:16:51.378Z,95092.00
2023-03-17T04:20:51.656Z,95079.00
2023-03-17T04:24:51.883Z,95090.00
2023-03-17T04:28:52.111Z,95094.00
2023-03-17T04:32:52.352Z,95075.00
2023-03-17T04:36:52.614Z,95073.00
2023-03-17T04:40:52.850Z,95077.00
2023-03-17T04:44:53.113Z,95063.00
2023-03-17T04:48:53.311Z,95073.00
2023-03-17T04:52:53.573Z,95057.00
2023-03-17T04:56:53.777Z,95061.00
2023-03-17T05:00:54.018Z,95063.00
2023-03-17T05:04:54.259Z,95055.00
2023-03-17T05:08:54.505Z,95067.00
2023-03-17T05:12:54.733Z,95067.00
2023-03-17T05:16:55.030Z,95073.00
2023-03-17T05:20:55.248Z,95075.00
2023-03-17T05:24:55.431Z,95069.00
2023-03-17T05:28:55.718Z,95071.00
2023-03-17T05:32:56.067Z,95067.00
2023-03-17T05:36:56.244Z,95063.00
2023-03-17T05:40:56.552Z,95071.00
2023-03-17T05:44:56.801Z,95067.00
2023-03-17T05:48:57.041Z,95071.00
2023-03-17T05:52:57.348Z,95069.00
2023-03-17T05:56:57.584Z,95075.00
2023-03-17T06:00:57.854Z,95059.00
2023-03-17T06:04:58.089Z,95065.00
2023-03-17T06:08:58.530Z,95063.00
2023-03-17T06:12:58.613Z,95067.00
2023-03-17T06:16:58.842Z,95071.00
2023-03-17T06:20:59.094Z,95063.00
2023-03-17T06:24:59.354Z,95061.00
2023-03-17T06:28:59.573Z,95063.00
2023-03-17T06:32:59.800Z,95065.00
2023-03-17T06:37:00.100Z,95065.00
2023-03-17T06:41:00.237Z,95069.00
2023-03-17T06:45:00.521Z,95063.00
2023-03-17T06:49:01.028Z,95053.00
2023-03-17T06:53:01.049Z,95053.00
2023-03-17T06:57:00.947Z,95055.00
2023-03-17T07:01:01.553Z,95057.00
2023-03-17T07:05:01.348Z,95047.00
2023-03-17T07:09:02.341Z,95051.00
2023-03-17T07:13:01.679Z,95053.00
2023-03-17T07:17:01.881Z,95043.00
2023-03-17T07:21:02.099Z,95057.00
2023-03-17T07:25:02.213Z,95045.00
2023-03-17T07:29:02.538Z,95037.00
2023-03-17T07:33:02.544Z,95057.00
2023-03-17T07:37:02.726Z,95049.00
2023-03-17T07:41:02.843Z,95049.00
2023-03-17T07:45:03.080Z,95049.00
2023-03-17T07:49:03.543Z,95033.00
2023-03-17T07:53:03.467Z,95030.00
2023-03-17T07:57:04.087Z,95020.00
2023-03-17T08:01:03.782Z,95022.00
2023-03-17T08:05:03.898Z,95024.00
2023-03-17T08:09:04.089Z,95022.00
2023-03-17T08:13:04.150Z,95018.00
2023-03-17T08:17:04.278Z,95010.00
2023-03-17T08:21:04.590Z,95010.00
2023-03-17T08:25:05.053Z,95002.00
2023-03-17T08:29:04.389Z,94988.00
2023-03-17T08:33:04.642Z,94988.00
2023-03-17T08:37:04.481Z,94992.00
2023-03-17T08:41:04.570Z,94988.00
2023-03-17T08:45:04.576Z,94969.00
2023-03-17T08:49:05.086Z,94977.00
2023-03-17T08:53:05.072Z,94957.00
2023-03-17T08:57:05.084Z,94969.00
2023-03-17T09:01:04.959Z,94961.00
2023-03-17T09:05:04.783Z,94961.00
2023-03-17T09:09:05.145Z,94951.00
2023-03-17T09:13:04.673Z,94943.00
2023-03-17T09:17:05.962Z,94930.00
2023-03-17T09:21:04.542Z,94932.00
2023-03-17T09:25:04.483Z,94906.00
2023-03-17T09:29:04.810Z,94898.00
2023-03-17T09:33:04.359Z,94894.00
2023-03-17T09:37:04.566Z,94893.00
2023-03-17T09:41:04.257Z,94891.00
2023-03-17T09:45:04.397Z,94898.00
2023-03-17T09:49:04.545Z,94889.00
2023-03-17T09:53:04.597Z,94885.00
2023-03-17T09:57:04.572Z,94879.00
2023-03-17T10:01:04.582Z,94867.00
2023-03-17T10:05:04.555Z,94871.00
2023-03-17T10:09:04.637Z,94851.00
2023-03-17T10:13:04.578Z,94847.00
2023-03-17T10:17:04.560Z,94846.00
2023-03-17T10:21:04.697Z,94844.00
2023-03-17T10:25:04.786Z,94822.00
2023-03-17T10:29:05.110Z,94820.00
2023-03-17T10:33:05.033Z,94812.00
2023-03-17T10:37:04.925Z,94810.00
2023-03-17T10:41:05.097Z,94802.00
2023-03-17T10:45:04.807Z,94802.00
2023-03-17T10:49:04.756Z,94793.00
2023-03-17T10:53:05.112Z,94775.00
2023-03-17T10:57:05.171Z,94771.00
2023-03-17T11:01:04.599Z,94761.00
2023-03-17T11:05:04.507Z,94767.00
2023-03-17T11:09:04.465Z,94769.00
2023-03-17T11:13:04.650Z,94753.00
2023-03-17T11:17:04.480Z,94753.00
2023-03-17T11:21:04.608Z,94742.00
2023-03-17T11:25:04.533Z,94732.00
2023-03-17T11:29:04.512Z,94732.00
2023-03-17T11:33:04.535Z,94726.00
2023-03-17T11:37:04.621Z,94710.00
2023-03-17T11:41:04.425Z,94699.00
2023-03-17T11:45:04.387Z,94699.00
2023-03-17T11:49:04.651Z,94701.00
2023-03-17T11:53:04.640Z,94697.00
2023-03-17T11:57:04.266Z,94667.00
2023-03-17T12:01:04.164Z,94671.00
2023-03-17T12:05:04.108Z,94675.00
2023-03-17T12:09:04.136Z,94663.00
2023-03-17T12:13:03.960Z,94648.00
2023-03-17T12:17:03.952Z,94638.00
2023-03-17T12:21:04.165Z,94642.00
2023-03-17T12:25:04.139Z,94630.00
2023-03-17T12:29:05.644Z,94626.00
2023-03-17T12:33:03.905Z,94624.00
2023-03-17T12:37:03.823Z,94618.00
2023-03-17T12:41:04.180Z,94613.00
2023-03-17T12:45:03.734Z,94611.00
2023-03-17T12:49:03.742Z,94603.00
2023-03-17T12:53:03.772Z,94595.00
2023-03-17T12:57:03.709Z,94597.00
2023-03-17T13:01:04.160Z,94585.00
2023-03-17T13:05:03.787Z,94575.00
2023-03-17T13:09:03.809Z,94556.00
2023-03-17T13:13:03.860Z,94550.00
2023-03-17T13:17:03.927Z,94558.00
2023-03-17T13:21:04.177Z,94550.00
2023-03-17T13:25:04.066Z,94550.00
2023-03-17T13:29:04.106Z,94536.00
2023-03-17T13:33:04.264Z,94534.00
2023-03-17T13:37:04.383Z,94530.00
2023-03-17T13:41:04.411Z,94528.00
2023-03-17T13:45:04.527Z,94524.00
2023-03-17T13:49:04.622Z,94519.00
2023-03-17T13:53:04.719Z,94517.00
2023-03-17T13:57:04.829Z,94507.00
2023-03-17T14:01:04.973Z,94499.00
2023-03-17T14:05:05.022Z,94493.00
2023-03-17T14:09:05.125Z,94495.00
2023-03-17T14:13:05.196Z,94493.00
2023-03-17T14:17:05.343Z,94495.00
2023-03-17T14:21:08.864Z,94493.00
2023-03-17T14:25:05.410Z,94477.00
2023-03-17T14:29:05.276Z,94483.00
2023-03-17T14:33:05.264Z,94485.00
2023-03-17T14:37:05.134Z,94481.00
2023-03-17T14:41:05.084Z,94479.00
2023-03-17T14:45:05.075Z,94479.00
2023-03-17T14:49:05.155Z,94479.00
2023-03-17T14:53:05.283Z,94477.00
2023-03-17T14:57:05.481Z,94479.00
2023-03-17T15:01:05.566Z,94472.00
2023-03-17T15:05:05.680Z,94464.00
2023-03-17T15:09:05.820Z,94464.00
2023-03-17T15:13:05.952Z,94473.00
2023-03-17T15:17:06.089Z,94464.00
2023-03-17T15:21:06.204Z,94464.00
2023-03-17T15:25:06.360Z,94466.00
2023-03-17T15:29:06.492Z,94460.00
2023-03-17T15:33:06.642Z,94462.00
2023-03-17T15:37:06.726Z,94462.00
2023-03-17T15:41:06.874Z,94464.00
2023-03-17T15:45:07.016Z,94464.00
2023-03-17T15:49:07.166Z,94460.00
2023-03-17T15:53:07.319Z,94456.00
2023-03-17T15:57:07.409Z,94462.00
2023-03-17T16:01:07.633Z,94458.00
2023-03-17T16:05:07.709Z,94456.00
2023-03-17T16:09:07.836Z,94452.00
2023-03-17T16:13:07.950Z,94460.00
2023-03-17T16:17:08.109Z,94466.00
2023-03-17T16:21:08.236Z,94468.00
2023-03-17T16:25:08.362Z,94458.00
2023-03-17T16:29:08.514Z,94462.00
2023-03-17T16:33:08.709Z,94466.00
2023-03-17T16:37:08.821Z,94470.00
2023-03-17T16:41:08.978Z,94479.00
2023-03-17T16:45:09.093Z,94493.00
2023-03-17T16:49:09.237Z,94497.00
2023-03-17T16:53:09.360Z,94495.00
2023-03-17T16:57:09.486Z,94509.00
2023-03-17T17:01:09.725Z,94526.00
2023-03-17T17:05:09.801Z,94524.00
2023-03-17T17:09:09.984Z,94536.00
2023-03-17T17:13:10.185Z,94524.00
2023-03-17T17:17:10.306Z,94528.00
2023-03-17T17:21:10.456Z,94530.00
2023-03-17T17:25:10.629Z,94528.00
2023-03-17T17:29:10.747Z,94536.00
2023-03-17T17:33:10.884Z,94534.00
2023-03-17T17:37:11.049Z,94530.00
2023-03-17T17:41:11.217Z,94532.00
2023-03-17T17:45:11.332Z,94532.00
2023-03-17T17:49:11.517Z,94542.00
2023-03-17T17:53:11.653Z,94552.00
2023-03-17T17:57:11.809Z,94540.00
2023-03-17T18:01:12.098Z,94544.00
2023-03-17T18:05:12.105Z,94532.00
2023-03-17T18:09:12.258Z,94538.00
2023-03-17T18:13:12.419Z,94538.00
2023-03-17T18:17:12.606Z,94540.00
2023-03-17T18:21:12.736Z,94536.00
2023-03-17T18:25:12.921Z,94532.00
2023-03-17T18:29:13.077Z,94548.00
2023-03-17T18:33:13.247Z,94560.00
2023-03-17T18:37:13.381Z,94560.00
2023-03-17T18:41:13.565Z,94579.00
2023-03-17T18:45:13.766Z,94573.00
2023-03-17T18:49:13.930Z,94581.00
2023-03-17T18:53:14.088Z,94575.00
2023-03-17T18:57:14.308Z,94579.00
2023-03-17T19:01:14.503Z,94589.00
2023-03-17T19:05:14.617Z,94577.00
2023-03-17T19:09:14.848Z,94577.00
2023-03-17T19:13:15.028Z,94591.00
2023-03-17T19:17:15.193Z,94589.00
2023-03-17T19:21:15.378Z,94593.00
2023-03-17T19:25:15.558Z,94597.00
2023-03-17T19:29:15.764Z,94595.00
2023-03-17T19:33:15.953Z,94601.00
2023-03-17T19:37:16.121Z,94585.00
2023-03-17T19:41:16.336Z,94595.00
2023-03-17T19:45:16.526Z,94599.00
2023-03-17T19:49:16.731Z,94591.00
2023-03-17T19:53:16.980Z,94606.00
2023-03-17T19:57:17.173Z,94606.00
2023-03-17T20:01:17.389Z,94601.00
2023-03-17T20:05:17.590Z,94599.00
2023-03-17T20:09:17.788Z,94599.00
2023-03-17T20:13:17.984Z,94603.00
2023-03-17T20:17:18.212Z,94613.00
2023-03-17T20:21:18.461Z,94601.00
2023-03-17T20:25:18.667Z,94606.00
2023-03-17T20:29:18.685Z,94608.00
2023-03-17T20:33:18.653Z,94614.00
2023-03-17T20:37:18.632Z,94608.00
2023-03-17T20:41:18.629Z,94606.00
2023-03-17T20:45:18.638Z,94611.00
2023-03-17T20:49:18.614Z,94614.00
2023-03-17T20:53:18.610Z,94616.00
2023-03-17T20:57:18.617Z,94614.00
2023-03-17T21:01:20.850Z,94614.00
2023-03-17T21:05:18.841Z,94603.00
2023-03-17T21:09:18.915Z,94620.00
2023-03-17T21:13:18.832Z,94632.00
2023-03-17T21:17:18.923Z,94636.00
2023-03-17T21:21:18.837Z,94644.00
2023-03-17T21:25:18.829Z,94630.00
2023-03-17T21:29:18.821Z,94640.00
2023-03-17T21:33:18.835Z,94636.00
2023-03-17T21:37:18.871Z,94667.00
2023-03-17T21:41:18.849Z,94661.00
2023-03-17T21:45:18.856Z,94671.00
2023-03-17T21:49:18.859Z,94671.00
2023-03-17T21:53:18.847Z,94673.00
2023-03-17T21:57:18.793Z,94673.00
2023-03-17T22:01:18.842Z,94687.00
2023-03-17T22:05:18.786Z,94683.00
2023-03-17T22:09:19.327Z,94683.00
2023-03-17T22:13:18.790Z,94697.00
2023-03-17T22:17:18.763Z,94701.00
2023-03-17T22:21:18.735Z,94703.00
2023-03-17T22:25:18.767Z,94703.00
2023-03-17T22:29:18.778Z,94703.00
2023-03-17T22:33:18.750Z,94706.00
2023-03-17T22:37:18.720Z,94706.00
2023-03-17T22:41:18.697Z,94708.00
2023-03-17T22:45:18.668Z,94703.00
2023-03-17T22:49:18.673Z,94706.00
2023-03-17T22:53:18.657Z,94710.00
2023-03-17T22:57:18.617Z,94712.00
2023-03-17T23:01:18.705Z,94718.00
2023-03-17T23:05:18.589Z,94728.00
2023-03-17T23:09:18.590Z,94730.00
2023-03-17T23:13:18.728Z,94742.00
2023-03-17T23:17:18.952Z,94740.00
2023-03-17T23:21:19.090Z,94734.00
2023-03-17T23:25:19.310Z,94742.00
2023-03-17T23:29:19.510Z,94748.00
2023-03-17T23:33:19.668Z,94755.00
2023-03-17T23:37:19.872Z,94763.00
2023-03-17T23:41:20.106Z,94759.00
2023-03-17T23:45:20.321Z,94759.00
2023-03-17T23:49:20.464Z,94765.00
2023-03-17T23:53:20.610Z,94761.00
2023-03-17T23:57:20.799Z,94769.00
